KBHM

Birmingham-Shuttlesworth International Airport

Birmingham, Alabama, USA
METAR KBHM 231553Z 18011KT 10SM FEW042 FEW250 24/14 A3039 RMK AO2 SLP284 T02390139 $
Observed Flight Rules
Feb-23 @ 15:53 UTC (43 minutes ago) Visual Flight Rules
Wind Visibility Clouds
180° at 11 knots 10 miles
  • Few at 4,200' AGL
  • Few at 25,000' AGL
Temperatures Readings
Current 24°C / 75°F
Dewpoint 14°C / 57°F
Humidity 54%
Altimeter 30.39" Hg
Pressure 1028.4 hPa
Elevation 197
METAR KBHM 231553Z 18011KT 10SM FEW042 FEW250 24/14 A3039 RMK AO2 SLP284 T02390139 $
Observed Flight Rules
Feb-23 @ 15:53 UTC
(43 minutes ago)
VFR
Wind Visibility
180° at 11 knots 10 miles
Clouds
  • Few at 4,200' AGL
  • Few at 25,000' AGL
Temperature Dewpoint
24°C / 75°F 14°C / 57°F
Humidity Altimeter Pressure
54% 30.39" Hg 1028.4 hPa